sensor_id;sensor_type;location;lat;lon;timestamp;pressure;altitude;pressure_sealevel;temperature;humidity
54910;BME280;63189;51.240;9.964;2024-01-11T00:01:57;99237.53;;;-7.39;81.60
54910;BME280;63189;51.240;9.964;2024-01-11T00:04:22;99227.88;;;-7.45;82.05
54910;BME280;63189;51.240;9.964;2024-01-11T00:06:49;99228.75;;;-7.44;82.63
54910;BME280;63189;51.240;9.964;2024-01-11T00:09:14;99229.94;;;-7.52;82.51
54910;BME280;63189;51.240;9.964;2024-01-11T00:11:40;99227.50;;;-7.51;81.30
54910;BME280;63189;51.240;9.964;2024-01-11T00:14:05;99229.16;;;-7.51;81.68
54910;BME280;63189;51.240;9.964;2024-01-11T00:16:30;99235.09;;;-7.51;80.75
54910;BME280;63189;51.240;9.964;2024-01-11T00:18:56;99234.13;;;-7.53;81.11
54910;BME280;63189;51.240;9.964;2024-01-11T00:21:21;99237.28;;;-7.57;81.33
54910;BME280;63189;51.240;9.964;2024-01-11T00:23:46;99239.63;;;-7.60;83.25
54910;BME280;63189;51.240;9.964;2024-01-11T00:26:12;99232.59;;;-7.64;83.34
54910;BME280;63189;51.240;9.964;2024-01-11T00:28:38;99229.81;;;-7.69;83.69
54910;BME280;63189;51.240;9.964;2024-01-11T00:31:03;99223.09;;;-7.68;82.80
54910;BME280;63189;51.240;9.964;2024-01-11T00:33:29;99236.63;;;-7.68;82.73
54910;BME280;63189;51.240;9.964;2024-01-11T00:35:55;99234.66;;;-7.72;82.62
54910;BME280;63189;51.240;9.964;2024-01-11T00:38:20;99242.78;;;-7.77;83.11
54910;BME280;63189;51.240;9.964;2024-01-11T00:40:45;99233.44;;;-7.78;83.66
54910;BME280;63189;51.240;9.964;2024-01-11T00:43:11;99234.69;;;-7.85;83.94
54910;BME280;63189;51.240;9.964;2024-01-11T00:45:36;99220.03;;;-7.91;83.77
54910;BME280;63189;51.240;9.964;2024-01-11T00:48:01;99218.06;;;-7.95;83.10
54910;BME280;63189;51.240;9.964;2024-01-11T00:50:27;99224.22;;;-7.91;83.19
54910;BME280;63189;51.240;9.964;2024-01-11T00:52:53;99225.09;;;-7.91;84.35
54910;BME280;63189;51.240;9.964;2024-01-11T00:55:18;99230.16;;;-7.91;84.67
54910;BME280;63189;51.240;9.964;2024-01-11T00:57:43;99225.75;;;-7.93;84.63
54910;BME280;63189;51.240;9.964;2024-01-11T01:00:10;99231.59;;;-7.94;84.76
54910;BME280;63189;51.240;9.964;2024-01-11T01:02:39;99226.44;;;-7.96;84.69
54910;BME280;63189;51.240;9.964;2024-01-11T01:05:04;99211.06;;;-7.99;84.83
54910;BME280;63189;51.240;9.964;2024-01-11T01:07:29;99217.00;;;-7.98;84.56
54910;BME280;63189;51.240;9.964;2024-01-11T01:09:55;99212.13;;;-7.95;84.03
54910;BME280;63189;51.240;9.964;2024-01-11T01:12:20;99201.75;;;-8.00;84.26
54910;BME280;63189;51.240;9.964;2024-01-11T01:14:45;99203.31;;;-8.02;83.14
54910;BME280;63189;51.240;9.964;2024-01-11T01:17:10;99207.59;;;-8.01;82.95
54910;BME280;63189;51.240;9.964;2024-01-11T01:19:36;99193.19;;;-8.02;83.30
54910;BME280;63189;51.240;9.964;2024-01-11T01:22:01;99195.72;;;-8.02;83.35
54910;BME280;63189;51.240;9.964;2024-01-11T01:24:26;99187.34;;;-8.01;83.26
54910;BME280;63189;51.240;9.964;2024-01-11T01:26:52;99206.00;;;-7.99;83.12
54910;BME280;63189;51.240;9.964;2024-01-11T01:29:17;99193.28;;;-8.00;82.79
54910;BME280;63189;51.240;9.964;2024-01-11T01:31:42;99194.06;;;-8.01;82.67
54910;BME280;63189;51.240;9.964;2024-01-11T01:34:08;99195.88;;;-7.99;82.81
54910;BME280;63189;51.240;9.964;2024-01-11T01:36:33;99201.81;;;-7.98;82.55
54910;BME280;63189;51.240;9.964;2024-01-11T01:38:58;99211.25;;;-7.96;82.65
54910;BME280;63189;51.240;9.964;2024-01-11T01:41:24;99197.63;;;-7.98;83.23
54910;BME280;63189;51.240;9.964;2024-01-11T01:43:49;99200.56;;;-8.05;83.25
54910;BME280;63189;51.240;9.964;2024-01-11T01:46:20;99193.56;;;-8.09;82.84
54910;BME280;63189;51.240;9.964;2024-01-11T01:48:47;99185.91;;;-8.10;83.09
54910;BME280;63189;51.240;9.964;2024-01-11T01:51:12;99189.09;;;-8.13;82.59
54910;BME280;63189;51.240;9.964;2024-01-11T01:53:38;99187.34;;;-8.14;82.57
54910;BME280;63189;51.240;9.964;2024-01-11T01:56:04;99185.81;;;-8.12;82.32
54910;BME280;63189;51.240;9.964;2024-01-11T01:58:30;99190.16;;;-8.09;82.88
54910;BME280;63189;51.240;9.964;2024-01-11T02:00:56;99190.25;;;-8.08;83.09
54910;BME280;63189;51.240;9.964;2024-01-11T02:03:24;99184.16;;;-8.11;84.18
54910;BME280;63189;51.240;9.964;2024-01-11T02:05:51;99191.44;;;-8.16;83.33
54910;BME280;63189;51.240;9.964;2024-01-11T02:08:18;99186.75;;;-8.23;84.05
54910;BME280;63189;51.240;9.964;2024-01-11T02:10:45;99203.72;;;-8.22;83.41
54910;BME280;63189;51.240;9.964;2024-01-11T02:13:11;99192.59;;;-8.24;84.40
54910;BME280;63189;51.240;9.964;2024-01-11T02:15:38;99209.44;;;-8.25;84.17
54910;BME280;63189;51.240;9.964;2024-01-11T02:18:03;99212.19;;;-8.22;85.13
54910;BME280;63189;51.240;9.964;2024-01-11T02:20:29;99204.28;;;-8.26;86.03
54910;BME280;63189;51.240;9.964;2024-01-11T02:23:01;99194.16;;;-8.26;86.35
54910;BME280;63189;51.240;9.964;2024-01-11T02:25:28;99201.47;;;-8.31;86.03
54910;BME280;63189;51.240;9.964;2024-01-11T02:27:54;99196.19;;;-8.34;86.08
54910;BME280;63189;51.240;9.964;2024-01-11T02:30:19;99196.19;;;-8.34;86.05
54910;BME280;63189;51.240;9.964;2024-01-11T02:32:46;99199.47;;;-8.36;86.53
54910;BME280;63189;51.240;9.964;2024-01-11T02:35:14;99194.31;;;-8.38;86.08
54910;BME280;63189;51.240;9.964;2024-01-11T02:37:40;99185.56;;;-8.43;85.83
54910;BME280;63189;51.240;9.964;2024-01-11T02:40:08;99193.16;;;-8.43;85.95
54910;BME280;63189;51.240;9.964;2024-01-11T02:42:34;99186.31;;;-8.44;85.14
54910;BME280;63189;51.240;9.964;2024-01-11T02:45:00;99191.50;;;-8.42;85.39
54910;BME280;63189;51.240;9.964;2024-01-11T02:47:26;99196.75;;;-8.39;84.97
54910;BME280;63189;51.240;9.964;2024-01-11T02:49:51;99194.81;;;-8.43;85.40
54910;BME280;63189;51.240;9.964;2024-01-11T02:52:16;99196.56;;;-8.42;85.33
54910;BME280;63189;51.240;9.964;2024-01-11T02:54:42;99192.16;;;-8.45;85.14
54910;BME280;63189;51.240;9.964;2024-01-11T02:57:07;99201.41;;;-8.46;85.24
54910;BME280;63189;51.240;9.964;2024-01-11T02:59:32;99202.41;;;-8.43;84.84
54910;BME280;63189;51.240;9.964;2024-01-11T03:01:58;99211.50;;;-8.46;85.81
54910;BME280;63189;51.240;9.964;2024-01-11T03:04:23;99211.41;;;-8.47;85.44
54910;BME280;63189;51.240;9.964;2024-01-11T03:06:48;99207.84;;;-8.51;86.24
54910;BME280;63189;51.240;9.964;2024-01-11T03:09:13;99211.91;;;-8.53;86.10
54910;BME280;63189;51.240;9.964;2024-01-11T03:11:39;99198.41;;;-8.53;86.42
54910;BME280;63189;51.240;9.964;2024-01-11T03:14:04;99199.19;;;-8.54;86.92
54910;BME280;63189;51.240;9.964;2024-01-11T03:16:29;99185.44;;;-8.58;87.06
54910;BME280;63189;51.240;9.964;2024-01-11T03:18:55;99200.16;;;-8.52;87.71
54910;BME280;63189;51.240;9.964;2024-01-11T03:21:20;99188.94;;;-8.56;88.12
54910;BME280;63189;51.240;9.964;2024-01-11T03:23:45;99200.06;;;-8.54;87.75
54910;BME280;63189;51.240;9.964;2024-01-11T03:26:17;99208.69;;;-8.50;88.28
54910;BME280;63189;51.240;9.964;2024-01-11T03:28:43;99203.75;;;-8.49;88.41
54910;BME280;63189;51.240;9.964;2024-01-11T03:31:09;99203.66;;;-8.50;88.12
54910;BME280;63189;51.240;9.964;2024-01-11T03:33:34;99198.41;;;-8.53;88.77
54910;BME280;63189;51.240;9.964;2024-01-11T03:35:59;99211.13;;;-8.52;89.67
54910;BME280;63189;51.240;9.964;2024-01-11T03:38:25;99222.81;;;-8.54;89.39
54910;BME280;63189;51.240;9.964;2024-01-11T03:40:50;99215.09;;;-8.55;89.51
54910;BME280;63189;51.240;9.964;2024-01-11T03:43:17;99205.50;;;-8.61;89.22
54910;BME280;63189;51.240;9.964;2024-01-11T03:45:43;99213.16;;;-8.59;89.14
54910;BME280;63189;51.240;9.964;2024-01-11T03:48:08;99203.06;;;-8.59;89.61
54910;BME280;63189;51.240;9.964;2024-01-11T03:50:33;99196.16;;;-8.62;89.41
54910;BME280;63189;51.240;9.964;2024-01-11T03:52:58;99198.78;;;-8.60;89.67
54910;BME280;63189;51.240;9.964;2024-01-11T03:55:24;99207.16;;;-8.61;89.13
54910;BME280;63189;51.240;9.964;2024-01-11T03:57:50;99213.84;;;-8.62;88.36
54910;BME280;63189;51.240;9.964;2024-01-11T04:00:16;99212.97;;;-8.62;87.81
54910;BME280;63189;51.240;9.964;2024-01-11T04:02:41;99213.63;;;-8.65;88.70
54910;BME280;63189;51.240;9.964;2024-01-11T04:05:07;99205.88;;;-8.68;89.41
54910;BME280;63189;51.240;9.964;2024-01-11T04:07:32;99193.91;;;-8.70;89.75
54910;BME280;63189;51.240;9.964;2024-01-11T04:09:57;99196.63;;;-8.67;87.96
54910;BME280;63189;51.240;9.964;2024-01-11T04:12:23;99192.44;;;-8.67;87.98
54910;BME280;63189;51.240;9.964;2024-01-11T04:14:48;99188.34;;;-8.65;87.27
54910;BME280;63189;51.240;9.964;2024-01-11T04:17:14;99187.38;;;-8.67;87.43
54910;BME280;63189;51.240;9.964;2024-01-11T04:19:39;99183.13;;;-8.68;87.53
54910;BME280;63189;51.240;9.964;2024-01-11T04:22:05;99199.16;;;-8.67;86.95
54910;BME280;63189;51.240;9.964;2024-01-11T04:24:30;99202.78;;;-8.64;87.54
54910;BME280;63189;51.240;9.964;2024-01-11T04:26:55;99200.34;;;-8.62;88.35
54910;BME280;63189;51.240;9.964;2024-01-11T04:29:21;99213.53;;;-8.66;87.85
54910;BME280;63189;51.240;9.964;2024-01-11T04:31:46;99207.41;;;-8.70;88.22
54910;BME280;63189;51.240;9.964;2024-01-11T04:34:11;99201.00;;;-8.78;88.28
54910;BME280;63189;51.240;9.964;2024-01-11T04:36:37;99187.97;;;-8.84;88.36
54910;BME280;63189;51.240;9.964;2024-01-11T04:39:03;99187.56;;;-8.90;88.47
54910;BME280;63189;51.240;9.964;2024-01-11T04:41:28;99186.78;;;-8.89;88.76
54910;BME280;63189;51.240;9.964;2024-01-11T04:43:54;99193.91;;;-8.84;88.28
54910;BME280;63189;51.240;9.964;2024-01-11T04:46:20;99192.25;;;-8.83;88.54
54910;BME280;63189;51.240;9.964;2024-01-11T04:48:47;99211.88;;;-8.79;88.63
54910;BME280;63189;51.240;9.964;2024-01-11T04:51:14;99211.97;;;-8.78;88.63
54910;BME280;63189;51.240;9.964;2024-01-11T04:53:40;99220.81;;;-8.84;88.44
54910;BME280;63189;51.240;9.964;2024-01-11T04:56:07;99228.41;;;-8.84;88.42
54910;BME280;63189;51.240;9.964;2024-01-11T04:58:33;99237.75;;;-8.83;88.54
54910;BME280;63189;51.240;9.964;2024-01-11T05:00:59;99232.28;;;-8.89;88.60
54910;BME280;63189;51.240;9.964;2024-01-11T05:03:25;99229.94;;;-8.86;89.08
54910;BME280;63189;51.240;9.964;2024-01-11T05:05:50;99237.13;;;-8.92;89.06
54910;BME280;63189;51.240;9.964;2024-01-11T05:08:16;99245.59;;;-8.92;89.41
54910;BME280;63189;51.240;9.964;2024-01-11T05:10:41;99245.59;;;-8.92;89.70
54910;BME280;63189;51.240;9.964;2024-01-11T05:13:06;99245.50;;;-8.93;89.64
54910;BME280;63189;51.240;9.964;2024-01-11T05:15:31;99252.09;;;-8.95;90.40
54910;BME280;63189;51.240;9.964;2024-01-11T05:17:58;99269.09;;;-8.93;90.13
54910;BME280;63189;51.240;9.964;2024-01-11T05:20:23;99275.81;;;-8.93;90.83
54910;BME280;63189;51.240;9.964;2024-01-11T05:22:49;99267.25;;;-8.95;90.32
54910;BME280;63189;51.240;9.964;2024-01-11T05:25:14;99267.25;;;-8.95;90.53
54910;BME280;63189;51.240;9.964;2024-01-11T05:27:39;99276.25;;;-8.99;90.64
54910;BME280;63189;51.240;9.964;2024-01-11T05:30:05;99267.81;;;-8.99;90.65
54910;BME280;63189;51.240;9.964;2024-01-11T05:32:31;99282.28;;;-8.97;90.66
54910;BME280;63189;51.240;9.964;2024-01-11T05:34:56;99276.94;;;-9.02;91.26
54910;BME280;63189;51.240;9.964;2024-01-11T05:37:22;99276.59;;;-8.94;91.31
54910;BME280;63189;51.240;9.964;2024-01-11T05:39:47;99284.16;;;-8.94;91.44
54910;BME280;63189;51.240;9.964;2024-01-11T05:42:12;99276.59;;;-8.94;91.65
54910;BME280;63189;51.240;9.964;2024-01-11T05:44:38;99274.84;;;-8.95;91.61
54910;BME280;63189;51.240;9.964;2024-01-11T05:47:03;99271.44;;;-8.96;91.81
54910;BME280;63189;51.240;9.964;2024-01-11T05:49:29;99264.50;;;-8.98;92.32
54910;BME280;63189;51.240;9.964;2024-01-11T05:51:54;99262.94;;;-8.96;92.87
54910;BME280;63189;51.240;9.964;2024-01-11T05:54:20;99243.75;;;-8.94;93.29
54910;BME280;63189;51.240;9.964;2024-01-11T05:56:45;99221.09;;;-8.93;92.33
54910;BME280;63189;51.240;9.964;2024-01-11T05:59:10;99215.34;;;-8.90;91.28
54910;BME280;63189;51.240;9.964;2024-01-11T06:01:41;99198.72;;;-8.87;91.16
54910;BME280;63189;51.240;9.964;2024-01-11T06:04:07;99193.13;;;-8.83;91.61
54910;BME280;63189;51.240;9.964;2024-01-11T06:06:32;99202.44;;;-8.82;90.64
54910;BME280;63189;51.240;9.964;2024-01-11T06:08:57;99204.63;;;-8.75;90.73
54910;BME280;63189;51.240;9.964;2024-01-11T06:11:23;99214.13;;;-8.70;91.01
54910;BME280;63189;51.240;9.964;2024-01-11T06:13:48;99206.44;;;-8.72;90.48
54910;BME280;63189;51.240;9.964;2024-01-11T06:16:13;99214.22;;;-8.69;90.98
54910;BME280;63189;51.240;9.964;2024-01-11T06:18:39;99233.56;;;-8.69;90.60
54910;BME280;63189;51.240;9.964;2024-01-11T06:21:04;99229.97;;;-8.73;90.78
54910;BME280;63189;51.240;9.964;2024-01-11T06:23:29;99232.19;;;-8.78;90.86
54910;BME280;63189;51.240;9.964;2024-01-11T06:25:54;99240.81;;;-8.87;90.77
54910;BME280;63189;51.240;9.964;2024-01-11T06:28:20;99243.25;;;-8.89;90.21
54910;BME280;63189;51.240;9.964;2024-01-11T06:30:45;99247.13;;;-8.94;90.36
54910;BME280;63189;51.240;9.964;2024-01-11T06:33:10;99250.91;;;-9.00;90.70
54910;BME280;63189;51.240;9.964;2024-01-11T06:35:36;99245.06;;;-8.99;90.15
54910;BME280;63189;51.240;9.964;2024-01-11T06:38:01;99248.19;;;-9.04;90.56
54910;BME280;63189;51.240;9.964;2024-01-11T06:40:26;99265.09;;;-9.03;90.40
54910;BME280;63189;51.240;9.964;2024-01-11T06:42:52;99258.06;;;-9.07;90.94
54910;BME280;63189;51.240;9.964;2024-01-11T06:45:17;99271.47;;;-9.08;90.57
54910;BME280;63189;51.240;9.964;2024-01-11T06:47:44;99262.91;;;-9.10;91.26
54910;BME280;63189;51.240;9.964;2024-01-11T06:50:12;99254.66;;;-9.07;91.46
54910;BME280;63189;51.240;9.964;2024-01-11T06:52:37;99260.72;;;-9.05;91.50
54910;BME280;63189;51.240;9.964;2024-01-11T06:55:02;99272.66;;;-9.03;92.44
54910;BME280;63189;51.240;9.964;2024-01-11T06:57:28;99276.75;;;-9.05;91.58
54910;BME280;63189;51.240;9.964;2024-01-11T06:59:53;99268.38;;;-9.04;91.57
54910;BME280;63189;51.240;9.964;2024-01-11T07:02:19;99271.69;;;-9.05;92.49
54910;BME280;63189;51.240;9.964;2024-01-11T07:04:44;99265.00;;;-9.04;92.42
54910;BME280;63189;51.240;9.964;2024-01-11T07:07:10;99254.56;;;-9.09;92.21
54910;BME280;63189;51.240;9.964;2024-01-11T07:09:35;99264.31;;;-9.02;92.53
54910;BME280;63189;51.240;9.964;2024-01-11T07:12:01;99271.31;;;-8.97;91.99
54910;BME280;63189;51.240;9.964;2024-01-11T07:14:27;99270.75;;;-8.93;91.62
54910;BME280;63189;51.240;9.964;2024-01-11T07:16:52;99279.13;;;-8.94;91.57
54910;BME280;63189;51.240;9.964;2024-01-11T07:19:17;99281.25;;;-8.87;91.52
54910;BME280;63189;51.240;9.964;2024-01-11T07:21:43;99288.06;;;-8.86;91.85
54910;BME280;63189;51.240;9.964;2024-01-11T07:24:08;99286.41;;;-8.86;91.77
54910;BME280;63189;51.240;9.964;2024-01-11T07:26:33;99296.41;;;-8.87;91.90
54910;BME280;63189;51.240;9.964;2024-01-11T07:28:59;99274.44;;;-8.88;92.78
54910;BME280;63189;51.240;9.964;2024-01-11T07:31:25;99266.09;;;-8.87;91.77
54910;BME280;63189;51.240;9.964;2024-01-11T07:33:50;99268.06;;;-8.83;91.84
54910;BME280;63189;51.240;9.964;2024-01-11T07:36:15;99263.97;;;-8.81;92.00
54910;BME280;63189;51.240;9.964;2024-01-11T07:38:41;99282.09;;;-8.75;92.04
54910;BME280;63189;51.240;9.964;2024-01-11T07:41:06;99269.75;;;-8.70;92.10
54910;BME280;63189;51.240;9.964;2024-01-11T07:43:32;99242.03;;;-8.69;91.96
54910;BME280;63189;51.240;9.964;2024-01-11T07:46:01;99231.72;;;-8.72;92.11
54910;BME280;63189;51.240;9.964;2024-01-11T07:51:20;99229.28;;;-8.70;91.78
54910;BME280;63189;51.240;9.964;2024-01-11T07:53:45;99244.78;;;-8.53;92.26
54910;BME280;63189;51.240;9.964;2024-01-11T07:56:11;99259.38;;;-8.49;92.10
54910;BME280;63189;51.240;9.964;2024-01-11T07:58:37;99271.84;;;-8.38;91.83
54910;BME280;63189;51.240;9.964;2024-01-11T08:01:03;99263.75;;;-8.33;92.12
54910;BME280;63189;51.240;9.964;2024-01-11T08:03:29;99271.44;;;-8.31;92.37
54910;BME280;63189;51.240;9.964;2024-01-11T08:05:55;99280.16;;;-8.26;91.74
54910;BME280;63189;51.240;9.964;2024-01-11T08:08:20;99271.63;;;-8.28;91.78
54910;BME280;63189;51.240;9.964;2024-01-11T08:10:47;99275.78;;;-8.29;91.15
54910;BME280;63189;51.240;9.964;2024-01-11T08:13:15;99272.22;;;-8.32;91.32
54910;BME280;63189;51.240;9.964;2024-01-11T08:15:40;99289.22;;;-8.30;91.35
54910;BME280;63189;51.240;9.964;2024-01-11T08:18:06;99283.00;;;-8.35;90.72
54910;BME280;63189;51.240;9.964;2024-01-11T08:20:31;99286.31;;;-8.36;90.61
54910;BME280;63189;51.240;9.964;2024-01-11T08:22:57;99268.72;;;-8.34;91.16
54910;BME280;63189;51.240;9.964;2024-01-11T08:25:23;99262.38;;;-8.28;90.94
54910;BME280;63189;51.240;9.964;2024-01-11T08:27:48;99280.84;;;-8.02;91.03
54910;BME280;63189;51.240;9.964;2024-01-11T08:30:14;99283.47;;;-7.88;90.11
54910;BME280;63189;51.240;9.964;2024-01-11T08:32:39;99272.19;;;-7.79;90.58
54910;BME280;63189;51.240;9.964;2024-01-11T08:35:07;99276.31;;;-7.53;91.07
54910;BME280;63189;51.240;9.964;2024-01-11T08:37:35;99272.19;;;-7.10;89.48
54910;BME280;63189;51.240;9.964;2024-01-11T08:40:00;99294.22;;;-6.52;88.18
54910;BME280;63189;51.240;9.964;2024-01-11T08:42:25;99282.91;;;-5.67;86.39
54910;BME280;63189;51.240;9.964;2024-01-11T08:44:50;99277.34;;;-4.96;83.03
54910;BME280;63189;51.240;9.964;2024-01-11T08:47:16;99277.91;;;-4.35;80.18
54910;BME280;63189;51.240;9.964;2024-01-11T08:49:42;99256.09;;;-3.94;78.75
54910;BME280;63189;51.240;9.964;2024-01-11T08:52:07;99250.06;;;-3.41;76.57
54910;BME280;63189;51.240;9.964;2024-01-11T08:54:33;99258.75;;;-2.80;75.82
54910;BME280;63189;51.240;9.964;2024-01-11T08:56:58;99260.56;;;-2.16;74.18
54910;BME280;63189;51.240;9.964;2024-01-11T08:59:24;99253.97;;;-1.46;72.34
54910;BME280;63189;51.240;9.964;2024-01-11T09:01:51;99260.59;;;-0.80;69.42
54910;BME280;63189;51.240;9.964;2024-01-11T09:04:16;99261.78;;;-0.47;67.77
54910;BME280;63189;51.240;9.964;2024-01-11T09:06:43;99267.50;;;0.24;66.00
54910;BME280;63189;51.240;9.964;2024-01-11T09:09:08;99271.97;;;0.86;64.13
54910;BME280;63189;51.240;9.964;2024-01-11T09:11:35;99261.69;;;1.47;62.18
54910;BME280;63189;51.240;9.964;2024-01-11T09:14:01;99237.97;;;1.91;58.78
54910;BME280;63189;51.240;9.964;2024-01-11T09:16:28;99234.28;;;2.18;59.11
54910;BME280;63189;51.240;9.964;2024-01-11T09:18:53;99249.75;;;2.57;57.46
54910;BME280;63189;51.240;9.964;2024-01-11T09:21:19;99253.97;;;2.93;57.64
54910;BME280;63189;51.240;9.964;2024-01-11T09:23:44;99258.69;;;3.13;56.27
54910;BME280;63189;51.240;9.964;2024-01-11T09:26:10;99252.31;;;3.40;55.66
54910;BME280;63189;51.240;9.964;2024-01-11T09:28:35;99255.41;;;3.66;54.93
54910;BME280;63189;51.240;9.964;2024-01-11T09:31:01;99256.28;;;3.68;53.66
54910;BME280;63189;51.240;9.964;2024-01-11T09:33:27;99266.63;;;3.69;53.70
54910;BME280;63189;51.240;9.964;2024-01-11T09:35:54;99271.94;;;3.77;54.14
54910;BME280;63189;51.240;9.964;2024-01-11T09:38:19;99263.22;;;3.72;53.25
54910;BME280;63189;51.240;9.964;2024-01-11T09:40:44;99258.22;;;3.80;52.63
54910;BME280;63189;51.240;9.964;2024-01-11T09:43:10;99259.47;;;4.04;53.38
54910;BME280;63189;51.240;9.964;2024-01-11T09:45:37;99264.31;;;4.38;51.88
54910;BME280;63189;51.240;9.964;2024-01-11T09:48:04;99271.53;;;4.60;52.22
54910;BME280;63189;51.240;9.964;2024-01-11T09:50:31;99263.06;;;4.70;49.83
54910;BME280;63189;51.240;9.964;2024-01-11T09:52:57;99267.00;;;5.07;50.50
54910;BME280;63189;51.240;9.964;2024-01-11T09:55:22;99261.41;;;5.43;49.96
54910;BME280;63189;51.240;9.964;2024-01-11T09:57:48;99267.59;;;5.58;49.26
54910;BME280;63189;51.240;9.964;2024-01-11T10:00:19;99257.47;;;5.82;49.02
54910;BME280;63189;51.240;9.964;2024-01-11T10:02:46;99264.53;;;5.95;48.09
54910;BME280;63189;51.240;9.964;2024-01-11T10:05:11;99259.41;;;6.01;48.55
54910;BME280;63189;51.240;9.964;2024-01-11T10:07:39;99252.50;;;6.03;47.60
54910;BME280;63189;51.240;9.964;2024-01-11T10:10:05;99247.41;;;6.14;47.32
54910;BME280;63189;51.240;9.964;2024-01-11T10:12:34;99245.75;;;6.18;47.88
54910;BME280;63189;51.240;9.964;2024-01-11T10:15:05;99243.09;;;6.12;46.66
54910;BME280;63189;51.240;9.964;2024-01-11T10:17:32;99248.41;;;6.30;47.91
54910;BME280;63189;51.240;9.964;2024-01-11T10:19:57;99245.91;;;6.44;46.80
54910;BME280;63189;51.240;9.964;2024-01-11T10:22:28;99246.03;;;6.66;46.23
54910;BME280;63189;51.240;9.964;2024-01-11T10:25:10;99255.75;;;7.01;45.24
54910;BME280;63189;51.240;9.964;2024-01-11T10:27:37;99244.56;;;7.14;47.66
54910;BME280;63189;51.240;9.964;2024-01-11T10:30:03;99247.16;;;7.19;47.21
54910;BME280;63189;51.240;9.964;2024-01-11T10:32:28;99253.25;;;7.29;45.90
54910;BME280;63189;51.240;9.964;2024-01-11T10:34:54;99243.69;;;7.18;44.52
54910;BME280;63189;51.240;9.964;2024-01-11T10:37:21;99249.63;;;6.85;44.16
54910;BME280;63189;51.240;9.964;2024-01-11T10:39:48;99245.16;;;6.63;45.26
54910;BME280;63189;51.240;9.964;2024-01-11T10:42:17;99246.03;;;6.57;46.18
54910;BME280;63189;51.240;9.964;2024-01-11T10:44:48;99239.00;;;6.41;45.36
54910;BME280;63189;51.240;9.964;2024-01-11T10:47:16;99231.06;;;6.18;46.74
54910;BME280;63189;51.240;9.964;2024-01-11T10:49:44;99232.66;;;6.02;46.67
54910;BME280;63189;51.240;9.964;2024-01-11T10:52:12;99226.31;;;5.73;46.80
54910;BME280;63189;51.240;9.964;2024-01-11T10:54:39;99223.47;;;5.42;46.94
54910;BME280;63189;51.240;9.964;2024-01-11T10:57:06;99229.34;;;5.29;43.90
54910;BME280;63189;51.240;9.964;2024-01-11T10:59:34;99224.50;;;4.84;43.60
54910;BME280;63189;51.240;9.964;2024-01-11T11:02:04;99216.34;;;4.53;42.98
54910;BME280;63189;51.240;9.964;2024-01-11T11:04:32;99209.81;;;4.18;45.55
54910;BME280;63189;51.240;9.964;2024-01-11T11:07:00;99202.81;;;4.12;46.95
54910;BME280;63189;51.240;9.964;2024-01-11T11:09:26;99191.63;;;4.10;45.10
54910;BME280;63189;51.240;9.964;2024-01-11T11:11:58;99195.19;;;4.18;46.25
54910;BME280;63189;51.240;9.964;2024-01-11T11:14:24;99193.38;;;4.14;49.29
54910;BME280;63189;51.240;9.964;2024-01-11T11:16:50;99189.81;;;4.06;46.23
54910;BME280;63189;51.240;9.964;2024-01-11T11:19:17;99194.59;;;3.82;43.88
54910;BME280;63189;51.240;9.964;2024-01-11T11:21:45;99191.53;;;3.53;44.41
54910;BME280;63189;51.240;9.964;2024-01-11T11:24:14;99185.22;;;3.34;46.04
54910;BME280;63189;51.240;9.964;2024-01-11T11:26:44;99183.16;;;3.16;46.18
54910;BME280;63189;51.240;9.964;2024-01-11T11:29:10;99178.56;;;3.01;47.34
54910;BME280;63189;51.240;9.964;2024-01-11T11:31:42;99195.88;;;3.07;48.42
54910;BME280;63189;51.240;9.964;2024-01-11T11:34:11;99202.50;;;2.94;46.95
54910;BME280;63189;51.240;9.964;2024-01-11T11:36:39;99198.03;;;2.85;50.07
54910;BME280;63189;51.240;9.964;2024-01-11T11:39:05;99202.13;;;2.76;47.71
54910;BME280;63189;51.240;9.964;2024-01-11T11:41:31;99190.53;;;2.55;47.25
54910;BME280;63189;51.240;9.964;2024-01-11T11:44:01;99203.84;;;2.36;47.00
54910;BME280;63189;51.240;9.964;2024-01-11T11:46:27;99195.69;;;2.18;48.03
54910;BME280;63189;51.240;9.964;2024-01-11T11:48:54;99189.72;;;2.19;49.44
54910;BME280;63189;51.240;9.964;2024-01-11T11:51:21;99189.91;;;2.28;48.84
54910;BME280;63189;51.240;9.964;2024-01-11T11:53:48;99198.69;;;2.36;47.60
54910;BME280;63189;51.240;9.964;2024-01-11T11:56:14;99192.91;;;2.46;48.92
54910;BME280;63189;51.240;9.964;2024-01-11T11:58:42;99199.16;;;2.57;48.24
54910;BME280;63189;51.240;9.964;2024-01-11T12:01:08;99192.81;;;2.42;46.17
54910;BME280;63189;51.240;9.964;2024-01-11T12:03:39;99197.63;;;2.28;45.56
54910;BME280;63189;51.240;9.964;2024-01-11T12:06:09;99179.91;;;2.01;44.14
54910;BME280;63189;51.240;9.964;2024-01-11T12:08:41;99190.44;;;1.77;44.70
54910;BME280;63189;51.240;9.964;2024-01-11T12:11:07;99188.00;;;1.47;44.91
54910;BME280;63189;51.240;9.964;2024-01-11T12:13:33;99191.03;;;1.32;46.12
54910;BME280;63189;51.240;9.964;2024-01-11T12:15:58;99189.94;;;1.23;47.16
54910;BME280;63189;51.240;9.964;2024-01-11T12:18:24;99185.66;;;1.23;47.89
54910;BME280;63189;51.240;9.964;2024-01-11T12:20:50;99170.50;;;1.32;47.14
54910;BME280;63189;51.240;9.964;2024-01-11T12:23:18;99163.28;;;1.52;49.38
54910;BME280;63189;51.240;9.964;2024-01-11T12:25:43;99156.88;;;1.69;47.10
54910;BME280;63189;51.240;9.964;2024-01-11T12:28:09;99157.72;;;1.70;46.89
54910;BME280;63189;51.240;9.964;2024-01-11T12:30:34;99162.22;;;1.79;48.16
54910;BME280;63189;51.240;9.964;2024-01-11T12:33:00;99162.16;;;1.77;46.42
54910;BME280;63189;51.240;9.964;2024-01-11T12:35:30;99171.44;;;1.70;46.24
54910;BME280;63189;51.240;9.964;2024-01-11T12:37:59;99164.28;;;1.57;47.25
54910;BME280;63189;51.240;9.964;2024-01-11T12:40:26;99146.75;;;1.42;46.50
54910;BME280;63189;51.240;9.964;2024-01-11T12:42:56;99146.50;;;1.32;47.64
54910;BME280;63189;51.240;9.964;2024-01-11T12:45:22;99139.59;;;1.29;47.67
54910;BME280;63189;51.240;9.964;2024-01-11T12:47:48;99136.81;;;1.22;48.68
54910;BME280;63189;51.240;9.964;2024-01-11T12:50:13;99137.91;;;1.31;49.23
54910;BME280;63189;51.240;9.964;2024-01-11T12:52:39;99129.59;;;1.40;48.75
54910;BME280;63189;51.240;9.964;2024-01-11T12:55:06;99122.28;;;1.57;50.74
54910;BME280;63189;51.240;9.964;2024-01-11T12:57:33;99120.13;;;1.75;50.03
54910;BME280;63189;51.240;9.964;2024-01-11T13:00:14;99109.38;;;1.91;49.89